createdAt,value
2019-03-06T00:04:19.179Z,8.38
2019-03-06T00:09:23.102Z,9.47
2019-03-06T00:14:26.646Z,9.93
2019-03-06T00:19:30.391Z,10.25
2019-03-06T00:24:33.952Z,10.40
2019-03-06T00:29:37.807Z,9.60
2019-03-06T00:34:41.350Z,11.20
2019-03-06T00:39:46.627Z,11.57
2019-03-06T00:44:50.201Z,10.53
2019-03-06T00:49:53.813Z,12.07
2019-03-06T00:54:57.400Z,11.30
2019-03-06T01:00:01.977Z,11.12
2019-03-06T01:05:07.967Z,11.35
2019-03-06T01:10:13.094Z,12.23
2019-03-06T01:15:17.864Z,19.65
2019-03-06T01:20:21.430Z,16.67
2019-03-06T01:25:25.463Z,12.05
2019-03-06T01:30:29.034Z,11.03
2019-03-06T01:35:34.160Z,13.38
2019-03-06T01:40:45.307Z,13.05
2019-03-06T01:45:48.844Z,11.80
2019-03-06T01:50:52.447Z,12.25
2019-03-06T01:55:56.043Z,12.07
2019-03-06T02:01:01.594Z,11.85
2019-03-06T02:06:05.542Z,12.55
2019-03-06T02:11:09.161Z,14.06
2019-03-06T02:16:12.723Z,14.05
2019-03-06T02:21:16.664Z,13.28
2019-03-06T02:26:20.208Z,12.30
2019-03-06T02:31:23.826Z,13.60
2019-03-06T02:36:27.372Z,13.03
2019-03-06T02:41:30.943Z,13.93
2019-03-06T02:46:34.490Z,13.13
2019-03-06T02:51:38.090Z,13.95
2019-03-06T02:56:41.611Z,14.63
2019-03-06T03:01:53.525Z,13.78
2019-03-06T03:07:04.668Z,14.45
2019-03-06T03:12:08.533Z,14.40
2019-03-06T03:17:12.057Z,13.70
2019-03-06T03:22:15.605Z,13.05
2019-03-06T03:27:19.150Z,12.60
2019-03-06T03:32:22.727Z,13.90
2019-03-06T03:37:26.290Z,14.30
2019-03-06T03:42:29.825Z,14.35
2019-03-06T03:47:33.397Z,17.07
2019-03-06T03:52:36.922Z,16.87
2019-03-06T03:57:40.502Z,14.73
2019-03-06T04:02:44.387Z,16.23
2019-03-06T04:07:48.301Z,18.00
2019-03-06T04:12:51.855Z,21.70
2019-03-06T04:17:55.848Z,28.80
2019-03-06T04:22:59.402Z,19.80
2019-03-06T04:28:02.984Z,13.53
2019-03-06T04:33:06.523Z,14.38
2019-03-06T04:38:10.099Z,37.85
2019-03-06T04:43:13.679Z,45.08
2019-03-06T04:48:17.233Z,19.00
2019-03-06T04:53:20.790Z,16.40
2019-03-06T04:58:26.258Z,16.15
2019-03-06T05:03:29.660Z,15.93
2019-03-06T05:08:33.227Z,13.70
2019-03-06T05:13:36.799Z,16.83
2019-03-06T05:18:41.916Z,43.58
2019-03-06T05:23:45.521Z,19.37
2019-03-06T05:28:49.074Z,19.42
2019-03-06T05:33:52.628Z,20.52
2019-03-06T05:39:09.615Z,19.92
2019-03-06T05:44:13.169Z,18.82
2019-03-06T05:49:16.757Z,26.30
2019-03-06T05:54:20.358Z,20.92
2019-03-06T05:59:23.904Z,19.20
2019-03-06T06:04:27.451Z,22.00
2019-03-06T06:09:31.003Z,20.37
2019-03-06T06:14:34.550Z,18.85
2019-03-06T06:19:38.129Z,19.77
2019-03-06T06:24:43.144Z,17.98
2019-03-06T06:29:46.788Z,18.52
2019-03-06T06:34:50.347Z,19.52
2019-03-06T06:39:53.912Z,21.07
2019-03-06T06:44:57.452Z,20.92
2019-03-06T06:50:01.041Z,18.57
2019-03-06T06:55:23.491Z,18.66
2019-03-06T07:00:52.208Z,19.73
2019-03-06T07:05:57.353Z,18.27
2019-03-06T07:11:08.450Z,18.70
2019-03-06T07:16:25.458Z,18.07
2019-03-06T07:21:30.644Z,18.50
2019-03-06T07:26:38.852Z,17.00
2019-03-06T07:31:43.975Z,19.07
2019-03-06T07:36:58.147Z,20.10
2019-03-06T07:42:03.242Z,20.25
2019-03-06T07:47:11.339Z,20.17
2019-03-06T07:52:33.368Z,20.90
2019-03-06T07:57:57.859Z,19.97
2019-03-06T08:03:06.310Z,19.80
2019-03-06T08:08:09.912Z,18.47
2019-03-06T08:13:16.051Z,17.48
2019-03-06T08:18:21.130Z,18.57
2019-03-06T08:23:38.258Z,20.80
2019-03-06T08:28:41.821Z,20.48
2019-03-06T08:33:45.605Z,21.50
2019-03-06T08:38:49.143Z,19.25
2019-03-06T08:43:52.998Z,18.35
2019-03-06T08:48:58.117Z,20.15
2019-03-06T08:54:06.442Z,19.60
2019-03-06T08:59:27.717Z,18.20
2019-03-06T09:04:32.845Z,20.85
2019-03-06T09:09:37.982Z,18.50
2019-03-06T09:14:55.149Z,17.07
2019-03-06T09:20:00.519Z,16.77
2019-03-06T09:25:08.407Z,15.05
2019-03-06T09:30:16.245Z,16.70
2019-03-06T09:35:23.659Z,17.37
2019-03-06T09:40:43.694Z,16.48
2019-03-06T09:45:54.925Z,15.55
2019-03-06T09:51:16.311Z,14.33
2019-03-06T09:56:24.562Z,14.23
2019-03-06T10:01:41.580Z,15.10
2019-03-06T10:06:52.573Z,15.98
2019-03-06T10:11:57.689Z,16.60
2019-03-06T10:17:17.981Z,14.95
2019-03-06T10:22:21.534Z,15.25
2019-03-06T10:27:25.117Z,15.00
2019-03-06T10:32:28.687Z,31.33
2019-03-06T10:37:32.236Z,16.32
2019-03-06T10:42:35.816Z,14.68
2019-03-06T10:47:39.442Z,16.82
2019-03-06T10:52:43.026Z,14.63
2019-03-06T10:57:46.581Z,16.55
2019-03-06T11:02:50.133Z,16.02
2019-03-06T11:07:54.324Z,12.68
2019-03-06T11:12:57.899Z,15.43
2019-03-06T11:18:01.495Z,14.50
2019-03-06T11:23:11.684Z,13.48
2019-03-06T11:28:15.225Z,13.58
2019-03-06T11:33:19.369Z,13.70
2019-03-06T11:38:23.030Z,14.25
2019-03-06T11:43:26.588Z,14.28
2019-03-06T11:48:30.142Z,14.15
2019-03-06T11:53:33.696Z,15.98
2019-03-06T11:58:37.247Z,16.45
2019-03-06T12:03:40.951Z,14.78
2019-03-06T12:08:45.767Z,15.08
2019-03-06T12:13:49.703Z,12.05
2019-03-06T12:18:53.265Z,12.05
2019-03-06T12:23:57.025Z,12.40
2019-03-06T12:29:00.737Z,11.38
2019-03-06T12:34:05.211Z,12.28
2019-03-06T12:39:08.763Z,12.25
2019-03-06T12:44:12.389Z,10.30
2019-03-06T12:49:15.963Z,9.40
2019-03-06T12:54:19.545Z,8.43
2019-03-06T12:59:23.079Z,7.83
2019-03-06T13:04:26.682Z,8.38
2019-03-06T13:09:30.239Z,8.53
2019-03-06T13:14:33.861Z,7.85
2019-03-06T13:19:37.418Z,7.67
2019-03-06T13:24:40.959Z,8.15
2019-03-06T13:29:45.567Z,8.53
2019-03-06T13:34:50.983Z,10.13
2019-03-06T13:39:54.630Z,8.40
2019-03-06T13:44:58.195Z,8.80
2019-03-06T13:50:01.778Z,9.25
2019-03-06T13:55:16.292Z,9.30
2019-03-06T14:00:20.879Z,10.82
2019-03-06T14:05:24.727Z,10.23
2019-03-06T14:10:29.671Z,22.15
2019-03-06T14:15:33.271Z,11.20
2019-03-06T14:20:36.848Z,10.05
2019-03-06T14:25:40.455Z,10.68
2019-03-06T14:30:44.241Z,11.50
2019-03-06T14:35:47.809Z,8.18
2019-03-06T14:40:51.352Z,9.28
2019-03-06T14:45:55.137Z,8.28
2019-03-06T14:50:58.969Z,6.78
2019-03-06T14:56:02.502Z,6.33
2019-03-06T15:01:06.065Z,5.90
2019-03-06T15:06:09.628Z,5.62
2019-03-06T15:11:13.223Z,6.77
2019-03-06T15:16:16.780Z,7.22
2019-03-06T15:21:20.361Z,7.40
2019-03-06T15:26:23.887Z,8.43
2019-03-06T15:31:27.448Z,8.95
2019-03-06T15:36:32.698Z,12.40
2019-03-06T15:41:36.343Z,11.05
2019-03-06T15:46:39.934Z,12.25
2019-03-06T15:51:43.486Z,18.35
2019-03-06T15:56:47.158Z,24.23
2019-03-06T16:01:50.700Z,15.40
2019-03-06T16:06:54.417Z,32.65
2019-03-06T16:11:58.047Z,13.03
2019-03-06T16:17:01.583Z,16.97
2019-03-06T16:22:05.124Z,18.50
2019-03-06T16:27:08.769Z,15.45
2019-03-06T16:32:12.299Z,41.18
2019-03-06T16:37:15.866Z,19.35
2019-03-06T16:42:19.434Z,22.00
2019-03-06T16:47:23.003Z,31.70
2019-03-06T16:52:26.526Z,29.60
2019-03-06T16:57:30.132Z,23.95
2019-03-06T17:02:34.344Z,22.00
2019-03-06T17:07:38.464Z,19.62
2019-03-06T17:12:42.704Z,21.97
2019-03-06T17:17:47.016Z,38.23
2019-03-06T17:22:51.377Z,29.00
2019-03-06T17:27:55.414Z,19.48
2019-03-06T17:33:10.353Z,42.50
2019-03-06T17:38:15.696Z,89.30
2019-03-06T17:43:19.949Z,61.80
2019-03-06T17:48:24.087Z,28.47
2019-03-06T17:53:28.158Z,27.45
2019-03-06T17:58:32.221Z,23.60
2019-03-06T18:03:40.494Z,23.75
2019-03-06T18:08:44.631Z,28.50
2019-03-06T18:13:48.710Z,37.30
2019-03-06T18:18:52.914Z,26.20
2019-03-06T18:23:57.878Z,28.67
2019-03-06T18:29:01.974Z,27.42
2019-03-06T18:34:06.309Z,27.77
2019-03-06T18:39:12.081Z,24.98
2019-03-06T18:44:16.292Z,21.82
2019-03-06T18:49:20.647Z,35.03
2019-03-06T18:54:24.494Z,26.10
2019-03-06T18:59:28.631Z,26.00
2019-03-06T19:04:32.861Z,27.62
2019-03-06T19:09:37.071Z,46.98
2019-03-06T19:14:42.489Z,32.48
2019-03-06T19:19:46.878Z,32.98
2019-03-06T19:24:51.053Z,27.55
2019-03-06T19:29:55.279Z,27.20
2019-03-06T19:34:59.844Z,27.35
2019-03-06T19:40:04.513Z,27.40
2019-03-06T19:45:22.783Z,27.17
2019-03-06T19:50:27.512Z,27.55
2019-03-06T19:55:31.711Z,24.07
2019-03-06T20:00:35.949Z,23.50
2019-03-06T20:05:40.782Z,24.23
2019-03-06T20:10:45.515Z,25.48
2019-03-06T20:15:49.701Z,23.52
2019-03-06T20:20:53.932Z,22.52
2019-03-06T20:25:58.245Z,21.65
2019-03-06T20:31:02.431Z,24.75
2019-03-06T20:36:06.990Z,23.27
2019-03-06T20:41:11.137Z,25.37
2019-03-06T20:46:16.489Z,21.90
2019-03-06T20:51:20.601Z,22.07
2019-03-06T20:56:24.594Z,23.32
2019-03-06T21:01:31.616Z,24.00
2019-03-06T21:06:36.474Z,19.00
2019-03-06T21:11:40.643Z,21.80
2019-03-06T21:16:44.687Z,27.25
2019-03-06T21:21:48.914Z,23.25
2019-03-06T21:26:53.103Z,21.95
2019-03-06T21:31:57.546Z,19.20
2019-03-06T21:37:01.687Z,18.32
2019-03-06T21:42:05.936Z,17.62
2019-03-06T21:47:10.010Z,19.30
2019-03-06T21:52:13.967Z,18.73
2019-03-06T21:57:17.905Z,17.73
2019-03-06T22:02:22.053Z,19.47
2019-03-06T22:07:26.077Z,20.95
2019-03-06T22:12:29.820Z,20.05
2019-03-06T22:17:33.939Z,21.10
2019-03-06T22:22:37.919Z,21.10
2019-03-06T22:27:41.734Z,22.80
2019-03-06T22:32:45.495Z,20.43
2019-03-06T22:37:49.367Z,19.73
2019-03-06T22:42:53.325Z,19.17
2019-03-06T22:47:57.122Z,19.57
2019-03-06T22:53:00.901Z,18.52
2019-03-06T22:58:05.114Z,18.32
2019-03-06T23:03:08.925Z,18.10
2019-03-06T23:08:12.654Z,19.27
2019-03-06T23:13:16.420Z,19.65
2019-03-06T23:18:20.345Z,20.23
2019-03-06T23:23:24.276Z,19.70
2019-03-06T23:28:28.014Z,18.35
2019-03-06T23:33:31.932Z,15.72
2019-03-06T23:38:35.836Z,17.37
2019-03-06T23:43:39.578Z,18.62
2019-03-06T23:48:43.377Z,19.23
2019-03-06T23:53:48.744Z,19.40
2019-03-06T23:58:52.525Z,18.17
